Terminal Aerodrome Forecast
Issued by NWS Pendleton, OR

Home | Current Version | Previous Version | Text Only | Print | Product List | Glossary On
Versions: 1 2 3 4 5 6 7 8 9 10 11 12 13 14 15
194
FTUS46 KPDT 052326
TAFPDT
TAF
KPDT 052326Z 0600/0624 15010KT P6SM BKN110 OVC150
     FM060500 23015G25KT P6SM -SHRA BKN050 OVC070
     FM060900 24015G25KT P6SM BKN050
     FM061300 25011KT P6SM BKN130=

USA.gov is the U.S. government's official web portal to all federal, state and local government web resources and services.